RYR6057 EBCI-LEXJ
Flight info
| Callsign | RYR6057 |
|---|---|
| Flight time | 1h 37m |
| Altitude | 31000 |
| Route | CIV N872 LESDO DCT KOVIN/N0433F330 DCT NIDUV DCT KIHVI UN872 TERPO DCT PEXOD DCT NENEM/N0347F190 Q42 XORNA |
| Aircraft | B738/M-SDFGIJ1LRWY/SB1 |
Departure
| Time | 2026-04-29 08:29 |
|---|---|
| Airport | Brussels South Charleroi Airport (EBCI) |
Arrival
| Time | 2026-04-29 10:06 |
|---|---|
| Airport | Seve Ballesteros-Santander Airport (LEXJ) |
| Time | Latitude | Longitude | Altitude | Speed | Heading |
|---|---|---|---|---|---|
| 2026-04-29 08:03 | 50.46943 | 4.47344 | 563 ft | 0 kts | 335° |
| 2026-04-29 08:17 | 50.46939 | 4.47347 | 562 ft | 2 kts | 335° |
| 2026-04-29 08:17 | 50.46927 | 4.47356 | 562 ft | 2 kts | 335° |
| 2026-04-29 08:18 | 50.46913 | 4.47366 | 562 ft | 2 kts | 335° |
| 2026-04-29 08:18 | 50.46899 | 4.47375 | 562 ft | 2 kts | 335° |
| 2026-04-29 08:18 | 50.46887 | 4.47384 | 562 ft | 0 kts | 335° |
| 2026-04-29 08:18 | 50.46878 | 4.47392 | 562 ft | 2 kts | 300° |
| 2026-04-29 08:19 | 50.46876 | 4.47412 | 561 ft | 0 kts | 249° |
| 2026-04-29 08:19 | 50.46879 | 4.47421 | 561 ft | 1 kts | 244° |
| 2026-04-29 08:19 | 50.46880 | 4.47424 | 561 ft | 0 kts | 245° |
| 2026-04-29 08:19 | 50.46880 | 4.47423 | 561 ft | 0 kts | 245° |
| 2026-04-29 08:21 | 50.46880 | 4.47424 | 561 ft | 0 kts | 245° |
| 2026-04-29 08:21 | 50.46877 | 4.47413 | 561 ft | 2 kts | 245° |
| 2026-04-29 08:22 | 50.46863 | 4.47365 | 562 ft | 10 kts | 245° |
| 2026-04-29 08:22 | 50.46838 | 4.47276 | 565 ft | 4 kts | 246° |
| 2026-04-29 08:22 | 50.46817 | 4.47203 | 568 ft | 13 kts | 246° |
| 2026-04-29 08:22 | 50.46766 | 4.47017 | 572 ft | 19 kts | 246° |
| 2026-04-29 08:23 | 50.46720 | 4.46847 | 579 ft | 14 kts | 246° |
| 2026-04-29 08:23 | 50.46676 | 4.46695 | 582 ft | 16 kts | 243° |
| 2026-04-29 08:23 | 50.46640 | 4.46574 | 586 ft | 3 kts | 244° |
| 2026-04-29 08:23 | 50.46623 | 4.46546 | 587 ft | 7 kts | 208° |
| 2026-04-29 08:24 | 50.46552 | 4.46553 | 586 ft | 10 kts | 192° |
| 2026-04-29 08:24 | 50.46507 | 4.46460 | 587 ft | 14 kts | 247° |
| 2026-04-29 08:24 | 50.46456 | 4.46282 | 592 ft | 18 kts | 245° |
| 2026-04-29 08:24 | 50.46401 | 4.46089 | 599 ft | 21 kts | 245° |
| 2026-04-29 08:25 | 50.46340 | 4.45882 | 604 ft | 18 kts | 245° |
| 2026-04-29 08:25 | 50.46288 | 4.45704 | 605 ft | 19 kts | 245° |
| 2026-04-29 08:25 | 50.46229 | 4.45503 | 606 ft | 21 kts | 244° |
| 2026-04-29 08:25 | 50.46165 | 4.45281 | 605 ft | 22 kts | 245° |
| 2026-04-29 08:26 | 50.46116 | 4.45115 | 603 ft | 16 kts | 244° |
| 2026-04-29 08:26 | 50.46066 | 4.44947 | 601 ft | 17 kts | 246° |
| 2026-04-29 08:26 | 50.46011 | 4.44750 | 599 ft | 20 kts | 245° |
| 2026-04-29 08:26 | 50.45952 | 4.44550 | 599 ft | 21 kts | 245° |
| 2026-04-29 08:27 | 50.45871 | 4.44347 | 602 ft | 20 kts | 231° |
| 2026-04-29 08:27 | 50.45789 | 4.44183 | 605 ft | 17 kts | 232° |
| 2026-04-29 08:27 | 50.45715 | 4.44033 | 606 ft | 14 kts | 232° |
| 2026-04-29 08:27 | 50.45644 | 4.44000 | 606 ft | 10 kts | 143° |
| 2026-04-29 08:28 | 50.45639 | 4.44090 | 606 ft | 8 kts | 68° |
| 2026-04-29 08:28 | 50.45717 | 4.44359 | 602 ft | 58 kts | 64° |
| 2026-04-29 08:28 | 50.45972 | 4.45234 | 602 ft | 115 kts | 65° |
| 2026-04-29 08:28 | 50.46371 | 4.46612 | 643 ft | 156 kts | 65° |
| 2026-04-29 08:29 | 50.46824 | 4.48156 | 1257 ft | 155 kts | 65° |
| 2026-04-29 08:29 | 50.47505 | 4.49419 | 1854 ft | 162 kts | 31° |
| 2026-04-29 08:29 | 50.48558 | 4.50114 | 2350 ft | 166 kts | 36° |
| 2026-04-29 08:29 | 50.49329 | 4.51476 | 2562 ft | 175 kts | 67° |
| 2026-04-29 08:30 | 50.49909 | 4.53247 | 2936 ft | 187 kts | 60° |
| 2026-04-29 08:30 | 50.51643 | 4.56743 | 3491 ft | 224 kts | 54° |
| 2026-04-29 08:30 | 50.52648 | 4.58695 | 3991 ft | 230 kts | 54° |
| 2026-04-29 08:31 | 50.53752 | 4.60524 | 4394 ft | 246 kts | 37° |
| 2026-04-29 08:31 | 50.55396 | 4.61420 | 4942 ft | 261 kts | 9° |
| 2026-04-29 08:31 | 50.57241 | 4.61102 | 5538 ft | 273 kts | 346° |
| 2026-04-29 08:31 | 50.58979 | 4.59777 | 6169 ft | 282 kts | 327° |
| 2026-04-29 08:32 | 50.60271 | 4.57427 | 6773 ft | 293 kts | 297° |
| 2026-04-29 08:32 | 50.60720 | 4.54317 | 7405 ft | 298 kts | 271° |
| 2026-04-29 08:32 | 50.60631 | 4.51035 | 8021 ft | 301 kts | 265° |
| 2026-04-29 08:32 | 50.60424 | 4.47774 | 8678 ft | 303 kts | 264° |
| 2026-04-29 08:33 | 50.60215 | 4.44448 | 9322 ft | 305 kts | 265° |
| 2026-04-29 08:33 | 50.60035 | 4.41110 | 9988 ft | 307 kts | 266° |
| 2026-04-29 08:33 | 50.59877 | 4.37742 | 10609 ft | 312 kts | 266° |
| 2026-04-29 08:33 | 50.59725 | 4.34269 | 10962 ft | 326 kts | 266° |
| 2026-04-29 08:34 | 50.59238 | 4.30717 | 11213 ft | 343 kts | 245° |
| 2026-04-29 08:34 | 50.57827 | 4.27668 | 11576 ft | 352 kts | 220° |
| 2026-04-29 08:34 | 50.55848 | 4.25293 | 12141 ft | 357 kts | 212° |
| 2026-04-29 08:34 | 50.53750 | 4.23161 | 12757 ft | 362 kts | 210° |
| 2026-04-29 08:35 | 50.51623 | 4.21047 | 13401 ft | 366 kts | 211° |
| 2026-04-29 08:35 | 50.49486 | 4.18865 | 14081 ft | 369 kts | 212° |
| 2026-04-29 08:35 | 50.47326 | 4.16582 | 14747 ft | 373 kts | 212° |
| 2026-04-29 08:35 | 50.45187 | 4.14268 | 15386 ft | 376 kts | 213° |
| 2026-04-29 08:36 | 50.43050 | 4.11927 | 15951 ft | 380 kts | 213° |
| 2026-04-29 08:36 | 50.40886 | 4.09547 | 16571 ft | 383 kts | 213° |
| 2026-04-29 08:36 | 50.38685 | 4.07125 | 17147 ft | 386 kts | 213° |
| 2026-04-29 08:36 | 50.36480 | 4.04704 | 17710 ft | 389 kts | 213° |
| 2026-04-29 08:37 | 50.34262 | 4.02274 | 18244 ft | 393 kts | 213° |
| 2026-04-29 08:37 | 50.32006 | 3.99807 | 18771 ft | 396 kts | 213° |
| 2026-04-29 08:37 | 50.29791 | 3.97389 | 19289 ft | 399 kts | 213° |
| 2026-04-29 08:37 | 50.27496 | 3.94888 | 19790 ft | 402 kts | 214° |
| 2026-04-29 08:38 | 50.25202 | 3.92392 | 20341 ft | 404 kts | 214° |
| 2026-04-29 08:38 | 50.22894 | 3.89884 | 20899 ft | 405 kts | 214° |
| 2026-04-29 08:38 | 50.20557 | 3.87346 | 21363 ft | 408 kts | 214° |
| 2026-04-29 08:38 | 50.18229 | 3.84823 | 21860 ft | 410 kts | 214° |
| 2026-04-29 08:39 | 50.15860 | 3.82258 | 22319 ft | 413 kts | 214° |
| 2026-04-29 08:39 | 50.13496 | 3.79700 | 22758 ft | 416 kts | 214° |
| 2026-04-29 08:39 | 50.11135 | 3.77149 | 23303 ft | 416 kts | 214° |
| 2026-04-29 08:39 | 50.08756 | 3.74581 | 23740 ft | 418 kts | 214° |
| 2026-04-29 08:40 | 50.06352 | 3.71990 | 24274 ft | 418 kts | 215° |
| 2026-04-29 08:40 | 50.03970 | 3.69427 | 24770 ft | 419 kts | 215° |
| 2026-04-29 08:40 | 50.01534 | 3.66807 | 25178 ft | 422 kts | 215° |
| 2026-04-29 08:40 | 49.99140 | 3.64235 | 25652 ft | 422 kts | 215° |
| 2026-04-29 08:41 | 49.96701 | 3.61620 | 26058 ft | 424 kts | 216° |
| 2026-04-29 08:41 | 49.94288 | 3.59033 | 26462 ft | 426 kts | 216° |
| 2026-04-29 08:41 | 49.91824 | 3.56397 | 26903 ft | 427 kts | 216° |
| 2026-04-29 08:41 | 49.89381 | 3.53787 | 27313 ft | 428 kts | 216° |
| 2026-04-29 08:42 | 49.87007 | 3.51254 | 27704 ft | 429 kts | 216° |
| 2026-04-29 08:42 | 49.84559 | 3.48643 | 28075 ft | 431 kts | 216° |
| 2026-04-29 08:42 | 49.82058 | 3.45980 | 28431 ft | 433 kts | 216° |
| 2026-04-29 08:42 | 49.79561 | 3.43324 | 28867 ft | 432 kts | 217° |
| 2026-04-29 08:43 | 49.77113 | 3.40726 | 29471 ft | 427 kts | 217° |
| 2026-04-29 08:43 | 49.74693 | 3.38162 | 30085 ft | 422 kts | 217° |
| 2026-04-29 08:43 | 49.72277 | 3.35606 | 30646 ft | 418 kts | 217° |
| 2026-04-29 08:43 | 49.69899 | 3.33089 | 31118 ft | 415 kts | 217° |
| 2026-04-29 08:44 | 49.67495 | 3.30546 | 31478 ft | 414 kts | 217° |
| 2026-04-29 08:44 | 49.65129 | 3.28047 | 31814 ft | 414 kts | 216° |
| 2026-04-29 08:44 | 49.62754 | 3.25543 | 32077 ft | 415 kts | 217° |
| 2026-04-29 08:44 | 49.60383 | 3.23045 | 32411 ft | 415 kts | 217° |
| 2026-04-29 08:45 | 49.57994 | 3.20534 | 32740 ft | 414 kts | 217° |
| 2026-04-29 08:45 | 49.55611 | 3.18032 | 33089 ft | 412 kts | 217° |
| 2026-04-29 08:45 | 49.53256 | 3.15555 | 33142 ft | 418 kts | 217° |
| 2026-04-29 08:46 | 49.48766 | 3.09708 | 33141 ft | 426 kts | 230° |
| 2026-04-29 08:46 | 49.45280 | 3.02192 | 33134 ft | 436 kts | 240° |
| 2026-04-29 08:47 | 49.42253 | 2.94123 | 33138 ft | 437 kts | 242° |
| 2026-04-29 08:47 | 49.39301 | 2.85969 | 33132 ft | 436 kts | 242° |
| 2026-04-29 08:48 | 49.35951 | 2.78209 | 33138 ft | 437 kts | 227° |
| 2026-04-29 08:48 | 49.31353 | 2.72085 | 33127 ft | 439 kts | 221° |
| 2026-04-29 08:49 | 49.26562 | 2.66377 | 33115 ft | 431 kts | 220° |
| 2026-04-29 08:49 | 49.21839 | 2.60681 | 33122 ft | 432 kts | 221° |
| 2026-04-29 08:50 | 49.17180 | 2.54920 | 33116 ft | 431 kts | 222° |
| 2026-04-29 08:50 | 49.12528 | 2.49099 | 33116 ft | 431 kts | 222° |
| 2026-04-29 08:51 | 49.07897 | 2.43290 | 33111 ft | 430 kts | 222° |
| 2026-04-29 08:51 | 49.03250 | 2.37464 | 33114 ft | 431 kts | 222° |
| 2026-04-29 08:52 | 48.98635 | 2.31689 | 33108 ft | 431 kts | 221° |
| 2026-04-29 08:52 | 48.94008 | 2.25914 | 33097 ft | 429 kts | 221° |
| 2026-04-29 08:53 | 48.89376 | 2.20150 | 33098 ft | 430 kts | 221° |
| 2026-04-29 08:53 | 48.84736 | 2.14389 | 33096 ft | 427 kts | 221° |
| 2026-04-29 08:54 | 48.80110 | 2.08662 | 33094 ft | 427 kts | 221° |
| 2026-04-29 08:54 | 48.75507 | 2.02978 | 33086 ft | 427 kts | 221° |
| 2026-04-29 08:55 | 48.70885 | 1.97283 | 33079 ft | 428 kts | 221° |
| 2026-04-29 08:55 | 48.66272 | 1.91613 | 33081 ft | 427 kts | 221° |
| 2026-04-29 08:56 | 48.61653 | 1.85950 | 33078 ft | 427 kts | 221° |
| 2026-04-29 08:56 | 48.57013 | 1.80271 | 33063 ft | 428 kts | 221° |
| 2026-04-29 08:57 | 48.52412 | 1.74653 | 33056 ft | 425 kts | 221° |
| 2026-04-29 08:57 | 48.47816 | 1.69060 | 33056 ft | 425 kts | 221° |
| 2026-04-29 08:58 | 48.43213 | 1.63472 | 33053 ft | 424 kts | 221° |
| 2026-04-29 08:58 | 48.38683 | 1.57981 | 33053 ft | 424 kts | 221° |
| 2026-04-29 08:59 | 48.34060 | 1.52392 | 33045 ft | 425 kts | 221° |
| 2026-04-29 08:59 | 48.29447 | 1.46829 | 33057 ft | 425 kts | 221° |
| 2026-04-29 09:00 | 48.24835 | 1.41282 | 33052 ft | 424 kts | 221° |
| 2026-04-29 09:00 | 48.20206 | 1.35730 | 33040 ft | 424 kts | 221° |
| 2026-04-29 09:01 | 48.15614 | 1.30234 | 33042 ft | 423 kts | 220° |
| 2026-04-29 09:01 | 48.11006 | 1.24733 | 33045 ft | 422 kts | 220° |
| 2026-04-29 09:02 | 48.06399 | 1.19245 | 33040 ft | 421 kts | 220° |
| 2026-04-29 09:02 | 48.01802 | 1.13781 | 33032 ft | 421 kts | 220° |
| 2026-04-29 09:03 | 47.97212 | 1.08336 | 33035 ft | 421 kts | 220° |
| 2026-04-29 09:03 | 47.92613 | 1.02894 | 33031 ft | 421 kts | 220° |
| 2026-04-29 09:04 | 47.88034 | 0.97494 | 33023 ft | 419 kts | 220° |
| 2026-04-29 09:04 | 47.83444 | 0.92094 | 33019 ft | 419 kts | 220° |
| 2026-04-29 09:05 | 47.78862 | 0.86708 | 33021 ft | 420 kts | 220° |
| 2026-04-29 09:05 | 47.74281 | 0.81339 | 33019 ft | 419 kts | 220° |
| 2026-04-29 09:06 | 47.69672 | 0.75948 | 33017 ft | 418 kts | 220° |
| 2026-04-29 09:06 | 47.65098 | 0.70608 | 33013 ft | 418 kts | 220° |
| 2026-04-29 09:07 | 47.60504 | 0.65255 | 33006 ft | 418 kts | 220° |
| 2026-04-29 09:07 | 47.55927 | 0.59938 | 32994 ft | 418 kts | 220° |
| 2026-04-29 09:08 | 47.51346 | 0.54631 | 32991 ft | 418 kts | 220° |
| 2026-04-29 09:08 | 47.46769 | 0.49337 | 32989 ft | 417 kts | 220° |
| 2026-04-29 09:09 | 47.42203 | 0.44071 | 32990 ft | 416 kts | 220° |
| 2026-04-29 09:09 | 47.37618 | 0.38796 | 32988 ft | 417 kts | 220° |
| 2026-04-29 09:10 | 47.33053 | 0.33559 | 32981 ft | 417 kts | 219° |
| 2026-04-29 09:10 | 47.28451 | 0.28292 | 32984 ft | 417 kts | 219° |
| 2026-04-29 09:11 | 47.23857 | 0.23045 | 32983 ft | 418 kts | 219° |
| 2026-04-29 09:11 | 47.19276 | 0.17820 | 32976 ft | 418 kts | 219° |
| 2026-04-29 09:12 | 47.14685 | 0.12597 | 32973 ft | 415 kts | 220° |
| 2026-04-29 09:12 | 47.10111 | 0.07401 | 32974 ft | 416 kts | 219° |
| 2026-04-29 09:13 | 47.05550 | 0.02230 | 32974 ft | 413 kts | 219° |
| 2026-04-29 09:13 | 47.00957 | -0.02964 | 32971 ft | 415 kts | 220° |
| 2026-04-29 09:14 | 46.96384 | -0.08126 | 32970 ft | 414 kts | 219° |
| 2026-04-29 09:14 | 46.91828 | -0.13254 | 32960 ft | 411 kts | 219° |
| 2026-04-29 09:15 | 46.87264 | -0.18375 | 32955 ft | 413 kts | 219° |
| 2026-04-29 09:15 | 46.82680 | -0.23506 | 32949 ft | 412 kts | 219° |
| 2026-04-29 09:16 | 46.78123 | -0.28596 | 32943 ft | 413 kts | 219° |
| 2026-04-29 09:16 | 46.73555 | -0.33694 | 32939 ft | 414 kts | 219° |
| 2026-04-29 09:17 | 46.68989 | -0.38777 | 32935 ft | 411 kts | 219° |
| 2026-04-29 09:17 | 46.64449 | -0.43819 | 32931 ft | 412 kts | 219° |
| 2026-04-29 09:18 | 46.59878 | -0.48884 | 32932 ft | 410 kts | 219° |
| 2026-04-29 09:18 | 46.55337 | -0.53904 | 32929 ft | 410 kts | 219° |
| 2026-04-29 09:19 | 46.50796 | -0.58914 | 32923 ft | 410 kts | 219° |
| 2026-04-29 09:19 | 46.46252 | -0.63915 | 32926 ft | 409 kts | 219° |
| 2026-04-29 09:20 | 46.41711 | -0.68906 | 32923 ft | 410 kts | 218° |
| 2026-04-29 09:20 | 46.37167 | -0.73888 | 32920 ft | 410 kts | 218° |
| 2026-04-29 09:21 | 46.32602 | -0.78887 | 32914 ft | 410 kts | 218° |
| 2026-04-29 09:21 | 46.28061 | -0.83847 | 32916 ft | 409 kts | 218° |
| 2026-04-29 09:22 | 46.23518 | -0.88792 | 32911 ft | 409 kts | 218° |
| 2026-04-29 09:22 | 46.18950 | -0.93750 | 32908 ft | 407 kts | 218° |
| 2026-04-29 09:23 | 46.14401 | -0.98680 | 32915 ft | 410 kts | 218° |
| 2026-04-29 09:23 | 46.09840 | -1.03621 | 32913 ft | 409 kts | 218° |
| 2026-04-29 09:24 | 46.05284 | -1.08548 | 32910 ft | 407 kts | 218° |
| 2026-04-29 09:24 | 46.00764 | -1.13421 | 32909 ft | 407 kts | 218° |
| 2026-04-29 09:25 | 45.96193 | -1.18333 | 32906 ft | 408 kts | 218° |
| 2026-04-29 09:25 | 45.91638 | -1.23224 | 32904 ft | 410 kts | 218° |
| 2026-04-29 09:26 | 45.87087 | -1.28105 | 32911 ft | 407 kts | 218° |
| 2026-04-29 09:26 | 45.82556 | -1.32951 | 32915 ft | 407 kts | 217° |
| 2026-04-29 09:27 | 45.77986 | -1.37828 | 32912 ft | 408 kts | 217° |
| 2026-04-29 09:27 | 45.73449 | -1.42658 | 32908 ft | 407 kts | 217° |
| 2026-04-29 09:28 | 45.68881 | -1.47502 | 32904 ft | 408 kts | 217° |
| 2026-04-29 09:28 | 45.64301 | -1.52346 | 32902 ft | 408 kts | 217° |
| 2026-04-29 09:29 | 45.59740 | -1.57163 | 32898 ft | 408 kts | 217° |
| 2026-04-29 09:29 | 45.52911 | -1.64365 | 32891 ft | 407 kts | 217° |
| 2026-04-29 09:30 | 45.48328 | -1.69193 | 32891 ft | 407 kts | 216° |
| 2026-04-29 09:30 | 45.43779 | -1.73972 | 32886 ft | 408 kts | 216° |
| 2026-04-29 09:31 | 45.39199 | -1.78767 | 32884 ft | 406 kts | 216° |
| 2026-04-29 09:31 | 45.34604 | -1.83567 | 32881 ft | 407 kts | 216° |
| 2026-04-29 09:32 | 45.30041 | -1.88327 | 32873 ft | 407 kts | 216° |
| 2026-04-29 09:32 | 45.25445 | -1.93118 | 32866 ft | 407 kts | 216° |
| 2026-04-29 09:33 | 45.20870 | -1.97877 | 32871 ft | 408 kts | 216° |
| 2026-04-29 09:33 | 45.16276 | -2.02644 | 32869 ft | 408 kts | 216° |
| 2026-04-29 09:34 | 45.11697 | -2.07388 | 32865 ft | 409 kts | 216° |
| 2026-04-29 09:34 | 45.07089 | -2.12154 | 32864 ft | 408 kts | 216° |
| 2026-04-29 09:35 | 45.02486 | -2.16902 | 32866 ft | 408 kts | 216° |
| 2026-04-29 09:35 | 44.97889 | -2.21629 | 32863 ft | 407 kts | 215° |
| 2026-04-29 09:36 | 44.93300 | -2.26337 | 32862 ft | 409 kts | 216° |
| 2026-04-29 09:36 | 44.88699 | -2.31053 | 32868 ft | 410 kts | 216° |
| 2026-04-29 09:37 | 44.84068 | -2.35787 | 32872 ft | 409 kts | 216° |
| 2026-04-29 09:37 | 44.79461 | -2.40486 | 32868 ft | 408 kts | 216° |
| 2026-04-29 09:38 | 44.74820 | -2.45207 | 32873 ft | 408 kts | 215° |
| 2026-04-29 09:38 | 44.70214 | -2.49890 | 32862 ft | 410 kts | 216° |
| 2026-04-29 09:39 | 44.65575 | -2.54587 | 32857 ft | 409 kts | 215° |
| 2026-04-29 09:39 | 44.60986 | -2.59222 | 32853 ft | 404 kts | 215° |
| 2026-04-29 09:40 | 44.56429 | -2.63818 | 32844 ft | 404 kts | 215° |
| 2026-04-29 09:40 | 44.51945 | -2.68345 | 32843 ft | 382 kts | 214° |
| 2026-04-29 09:41 | 44.49829 | -2.70484 | 32839 ft | 366 kts | 214° |
| 2026-04-29 09:41 | 44.47797 | -2.72535 | 32840 ft | 353 kts | 214° |
| 2026-04-29 09:41 | 44.45797 | -2.74551 | 32648 ft | 354 kts | 214° |
| 2026-04-29 09:41 | 44.43776 | -2.76579 | 32244 ft | 358 kts | 214° |
| 2026-04-29 09:42 | 44.41782 | -2.78580 | 31831 ft | 354 kts | 214° |
| 2026-04-29 09:42 | 44.39788 | -2.80579 | 31415 ft | 349 kts | 214° |
| 2026-04-29 09:42 | 44.37816 | -2.82554 | 30995 ft | 344 kts | 214° |
| 2026-04-29 09:42 | 44.35903 | -2.84465 | 30591 ft | 339 kts | 214° |
| 2026-04-29 09:43 | 44.33989 | -2.86380 | 30184 ft | 335 kts | 214° |
| 2026-04-29 09:43 | 44.32108 | -2.88266 | 29783 ft | 330 kts | 214° |
| 2026-04-29 09:43 | 44.30248 | -2.90122 | 29379 ft | 325 kts | 214° |
| 2026-04-29 09:43 | 44.28422 | -2.91943 | 28987 ft | 320 kts | 214° |
| 2026-04-29 09:44 | 44.26613 | -2.93743 | 28603 ft | 319 kts | 213° |
| 2026-04-29 09:44 | 44.24745 | -2.95596 | 28203 ft | 336 kts | 214° |
| 2026-04-29 09:44 | 44.22839 | -2.97489 | 27771 ft | 340 kts | 214° |
| 2026-04-29 09:44 | 44.20921 | -2.99399 | 27346 ft | 336 kts | 214° |
| 2026-04-29 09:45 | 44.19025 | -3.01286 | 26926 ft | 331 kts | 214° |
| 2026-04-29 09:45 | 44.17165 | -3.03137 | 26520 ft | 327 kts | 214° |
| 2026-04-29 09:45 | 44.15325 | -3.04969 | 26118 ft | 323 kts | 214° |
| 2026-04-29 09:45 | 44.13493 | -3.06788 | 25705 ft | 319 kts | 214° |
| 2026-04-29 09:46 | 44.11691 | -3.08575 | 25302 ft | 315 kts | 214° |
| 2026-04-29 09:46 | 44.09929 | -3.10322 | 24906 ft | 312 kts | 214° |
| 2026-04-29 09:46 | 44.08149 | -3.12087 | 24515 ft | 308 kts | 214° |
| 2026-04-29 09:46 | 44.06415 | -3.13798 | 24121 ft | 307 kts | 214° |
| 2026-04-29 09:47 | 44.04662 | -3.15616 | 23736 ft | 325 kts | 217° |
| 2026-04-29 09:47 | 44.02918 | -3.17685 | 23303 ft | 331 kts | 220° |
| 2026-04-29 09:47 | 44.01222 | -3.19850 | 22870 ft | 329 kts | 221° |
| 2026-04-29 09:47 | 43.99562 | -3.22012 | 22438 ft | 326 kts | 221° |
| 2026-04-29 09:48 | 43.97907 | -3.24154 | 22019 ft | 323 kts | 221° |
| 2026-04-29 09:48 | 43.96265 | -3.26261 | 21601 ft | 320 kts | 220° |
| 2026-04-29 09:48 | 43.94620 | -3.28361 | 21169 ft | 318 kts | 220° |
| 2026-04-29 09:48 | 43.93014 | -3.30401 | 20773 ft | 315 kts | 220° |
| 2026-04-29 09:49 | 43.91391 | -3.32456 | 20348 ft | 312 kts | 220° |
| 2026-04-29 09:49 | 43.89800 | -3.34465 | 19945 ft | 310 kts | 220° |
| 2026-04-29 09:49 | 43.88206 | -3.36474 | 19535 ft | 307 kts | 220° |
| 2026-04-29 09:49 | 43.86624 | -3.38468 | 19117 ft | 305 kts | 220° |
| 2026-04-29 09:50 | 43.85066 | -3.40426 | 18726 ft | 302 kts | 220° |
| 2026-04-29 09:50 | 43.83494 | -3.42395 | 18322 ft | 300 kts | 220° |
| 2026-04-29 09:50 | 43.81956 | -3.44320 | 17932 ft | 298 kts | 220° |
| 2026-04-29 09:50 | 43.80415 | -3.46250 | 17630 ft | 293 kts | 220° |
| 2026-04-29 09:51 | 43.78917 | -3.48127 | 17263 ft | 290 kts | 220° |
| 2026-04-29 09:51 | 43.77421 | -3.50002 | 16883 ft | 288 kts | 220° |
| 2026-04-29 09:51 | 43.75932 | -3.51871 | 16457 ft | 286 kts | 220° |
| 2026-04-29 09:51 | 43.74468 | -3.53699 | 16060 ft | 284 kts | 220° |
| 2026-04-29 09:52 | 43.72990 | -3.55537 | 15679 ft | 281 kts | 220° |
| 2026-04-29 09:52 | 43.71534 | -3.57315 | 15210 ft | 281 kts | 219° |
| 2026-04-29 09:52 | 43.70079 | -3.59114 | 14749 ft | 281 kts | 220° |
| 2026-04-29 09:52 | 43.68610 | -3.60961 | 14303 ft | 282 kts | 221° |
| 2026-04-29 09:53 | 43.67171 | -3.62782 | 13860 ft | 284 kts | 221° |
| 2026-04-29 09:53 | 43.65665 | -3.64528 | 13478 ft | 280 kts | 210° |
| 2026-04-29 09:53 | 43.63845 | -3.65335 | 13151 ft | 275 kts | 181° |
| 2026-04-29 09:53 | 43.61972 | -3.64884 | 12823 ft | 274 kts | 159° |
| 2026-04-29 09:54 | 43.60341 | -3.63518 | 12467 ft | 276 kts | 143° |
| 2026-04-29 09:54 | 43.59016 | -3.61601 | 12093 ft | 279 kts | 127° |
| 2026-04-29 09:54 | 43.58311 | -3.59102 | 11743 ft | 286 kts | 101° |
| 2026-04-29 09:54 | 43.58312 | -3.56347 | 11382 ft | 290 kts | 88° |
| 2026-04-29 09:55 | 43.58380 | -3.53583 | 10970 ft | 286 kts | 103° |
| 2026-04-29 09:55 | 43.57750 | -3.51053 | 10622 ft | 275 kts | 123° |
| 2026-04-29 09:55 | 43.56706 | -3.48867 | 10259 ft | 272 kts | 130° |
| 2026-04-29 09:55 | 43.55600 | -3.46778 | 9907 ft | 271 kts | 129° |
| 2026-04-29 09:56 | 43.54532 | -3.44652 | 9724 ft | 264 kts | 127° |
| 2026-04-29 09:56 | 43.53535 | -3.42545 | 9349 ft | 265 kts | 126° |
| 2026-04-29 09:56 | 43.52537 | -3.40373 | 9009 ft | 265 kts | 126° |
| 2026-04-29 09:56 | 43.51528 | -3.38265 | 8652 ft | 262 kts | 133° |
| 2026-04-29 09:57 | 43.50128 | -3.36752 | 8348 ft | 254 kts | 155° |
| 2026-04-29 09:57 | 43.48510 | -3.35825 | 8001 ft | 252 kts | 162° |
| 2026-04-29 09:57 | 43.46784 | -3.35343 | 7691 ft | 248 kts | 177° |
| 2026-04-29 09:57 | 43.45068 | -3.35337 | 7350 ft | 248 kts | 182° |
| 2026-04-29 09:58 | 43.43340 | -3.35467 | 7001 ft | 247 kts | 184° |
| 2026-04-29 09:58 | 43.41624 | -3.35649 | 6682 ft | 246 kts | 185° |
| 2026-04-29 09:58 | 43.39936 | -3.35875 | 6487 ft | 240 kts | 187° |
| 2026-04-29 09:58 | 43.38281 | -3.36216 | 6180 ft | 239 kts | 190° |
| 2026-04-29 09:59 | 43.36638 | -3.36686 | 5857 ft | 239 kts | 192° |
| 2026-04-29 09:59 | 43.35057 | -3.37324 | 5584 ft | 237 kts | 205° |
| 2026-04-29 09:59 | 43.33850 | -3.38815 | 5508 ft | 230 kts | 235° |
| 2026-04-29 09:59 | 43.33144 | -3.40739 | 5453 ft | 224 kts | 242° |
| 2026-04-29 10:00 | 43.32687 | -3.42816 | 5372 ft | 230 kts | 259° |
| 2026-04-29 10:00 | 43.32772 | -3.45041 | 5110 ft | 239 kts | 279° |
| 2026-04-29 10:00 | 43.33257 | -3.47222 | 4879 ft | 237 kts | 287° |
| 2026-04-29 10:00 | 43.33841 | -3.49306 | 4678 ft | 230 kts | 288° |
| 2026-04-29 10:01 | 43.34407 | -3.51309 | 4603 ft | 216 kts | 287° |
| 2026-04-29 10:01 | 43.34930 | -3.53237 | 4275 ft | 219 kts | 287° |
| 2026-04-29 10:01 | 43.35463 | -3.55212 | 3906 ft | 219 kts | 288° |
| 2026-04-29 10:01 | 43.35988 | -3.57137 | 3657 ft | 213 kts | 288° |
| 2026-04-29 10:02 | 43.36509 | -3.59046 | 3363 ft | 214 kts | 288° |
| 2026-04-29 10:02 | 43.37017 | -3.60936 | 3074 ft | 207 kts | 288° |
| 2026-04-29 10:02 | 43.37511 | -3.62749 | 2784 ft | 195 kts | 288° |
| 2026-04-29 10:02 | 43.37976 | -3.64462 | 2522 ft | 186 kts | 288° |
| 2026-04-29 10:03 | 43.38425 | -3.66129 | 2263 ft | 185 kts | 289° |
| 2026-04-29 10:03 | 43.38874 | -3.67790 | 2008 ft | 184 kts | 289° |
| 2026-04-29 10:03 | 43.39320 | -3.69432 | 1758 ft | 183 kts | 289° |
| 2026-04-29 10:03 | 43.39763 | -3.71076 | 1515 ft | 181 kts | 289° |
| 2026-04-29 10:04 | 43.40199 | -3.72691 | 1282 ft | 176 kts | 290° |
| 2026-04-29 10:04 | 43.40602 | -3.74184 | 1016 ft | 163 kts | 289° |
| 2026-04-29 10:04 | 43.40980 | -3.75590 | 817 ft | 151 kts | 290° |
| 2026-04-29 10:04 | 43.41337 | -3.76916 | 625 ft | 147 kts | 290° |
| 2026-04-29 10:05 | 43.41695 | -3.78238 | 428 ft | 146 kts | 289° |
| 2026-04-29 10:05 | 43.42037 | -3.79540 | 227 ft | 146 kts | 289° |
| 2026-04-29 10:05 | 43.42392 | -3.80830 | 44 ft | 144 kts | 290° |
| 2026-04-29 10:05 | 43.42724 | -3.82066 | 7 ft | 116 kts | 289° |
| 2026-04-29 10:06 | 43.42928 | -3.82829 | 11 ft | 62 kts | 290° |
| 2026-04-29 10:06 | 43.43010 | -3.83138 | 14 ft | 23 kts | 290° |
| 2026-04-29 10:06 | 43.43034 | -3.83304 | 14 ft | 11 kts | 260° |
| 2026-04-29 10:06 | 43.43055 | -3.83338 | 14 ft | 5 kts | 63° |
| 2026-04-29 10:07 | 43.43047 | -3.83269 | 14 ft | 14 kts | 109° |
| 2026-04-29 10:07 | 43.43006 | -3.83151 | 14 ft | 11 kts | 130° |
| 2026-04-29 10:07 | 43.42917 | -3.83083 | 12 ft | 20 kts | 158° |
| 2026-04-29 10:07 | 43.42801 | -3.82979 | 10 ft | 19 kts | 117° |
| 2026-04-29 10:08 | 43.42751 | -3.82800 | 9 ft | 19 kts | 110° |
| 2026-04-29 10:08 | 43.42703 | -3.82618 | 7 ft | 21 kts | 110° |
| 2026-04-29 10:08 | 43.42655 | -3.82441 | 7 ft | 14 kts | 109° |
| 2026-04-29 10:08 | 43.42616 | -3.82317 | 7 ft | 13 kts | 137° |
| 2026-04-29 10:09 | 43.42536 | -3.82325 | 9 ft | 10 kts | 198° |
| 2026-04-29 10:09 | 43.42476 | -3.82353 | 11 ft | 7 kts | 201° |
| 2026-04-29 10:09 | 43.42449 | -3.82379 | 12 ft | 1 kts | 230° |
| 2026-04-29 10:09 | 43.42434 | -3.82405 | 13 ft | 5 kts | 234° |
| 2026-04-29 10:10 | 43.42427 | -3.82419 | 13 ft | 1 kts | 234° |
| 2026-04-29 10:10 | 43.42422 | -3.82429 | 13 ft | 0 kts | 234° |
| 2026-04-29 10:10 | 43.42419 | -3.82434 | 13 ft | 0 kts | 234° |
| 2026-04-29 10:10 | 43.42419 | -3.82435 | 13 ft | 0 kts | 235° |